createdAt,value
2017-08-07T00:00:08.974Z,60.30
2017-08-07T00:02:38.025Z,59.90
2017-08-07T00:05:06.356Z,59.90
2017-08-07T00:07:34.635Z,59.50
2017-08-07T00:10:02.928Z,60.00
2017-08-07T00:12:31.245Z,60.20
2017-08-07T00:14:59.615Z,59.80
2017-08-07T00:17:27.915Z,59.90
2017-08-07T00:19:56.236Z,60.70
2017-08-07T00:22:24.628Z,61.90
2017-08-07T00:24:52.935Z,61.30
2017-08-07T00:27:21.232Z,61.70
2017-08-07T00:29:49.567Z,62.10
2017-08-07T00:32:17.908Z,62.90
2017-08-07T00:34:46.230Z,62.70
2017-08-07T00:37:14.576Z,62.30
2017-08-07T00:39:42.868Z,62.20
2017-08-07T00:42:11.163Z,62.20
2017-08-07T00:44:39.501Z,62.30
2017-08-07T00:47:07.800Z,62.30
2017-08-07T00:49:36.155Z,62.50
2017-08-07T00:52:04.490Z,62.20
2017-08-07T00:54:32.783Z,62.00
2017-08-07T00:57:01.062Z,62.10
2017-08-07T00:59:29.368Z,62.30
2017-08-07T01:01:58.416Z,61.70
2017-08-07T01:04:26.711Z,62.40
2017-08-07T01:06:55.052Z,62.50
2017-08-07T01:09:23.336Z,62.60
2017-08-07T01:11:51.611Z,62.90
2017-08-07T01:14:19.927Z,62.70
2017-08-07T01:16:48.206Z,62.60
2017-08-07T01:19:16.511Z,62.90
2017-08-07T01:21:44.827Z,63.20
2017-08-07T01:24:13.136Z,63.60
2017-08-07T01:26:41.458Z,63.70
2017-08-07T01:29:10.540Z,63.70
2017-08-07T01:31:38.850Z,63.70
2017-08-07T01:34:07.143Z,64.00
2017-08-07T01:36:35.427Z,64.50
2017-08-07T01:39:03.740Z,64.20
2017-08-07T01:41:32.048Z,64.00
2017-08-07T01:44:00.335Z,64.00
2017-08-07T01:46:28.666Z,64.00
2017-08-07T01:48:57.751Z,65.50
2017-08-07T01:51:26.075Z,64.40
2017-08-07T01:53:54.379Z,64.50
2017-08-07T01:56:22.660Z,64.70
2017-08-07T01:58:50.991Z,65.00
2017-08-07T02:01:19.325Z,65.10
2017-08-07T02:03:47.603Z,65.00
2017-08-07T02:06:16.683Z,64.80
2017-08-07T02:08:44.999Z,64.70
2017-08-07T02:11:13.317Z,65.40
2017-08-07T02:13:42.383Z,66.30
2017-08-07T02:16:10.693Z,66.20
2017-08-07T02:18:39.002Z,66.70
2017-08-07T02:21:07.299Z,67.10
2017-08-07T02:23:35.623Z,67.00
2017-08-07T02:26:03.906Z,67.20
2017-08-07T02:28:32.203Z,67.40
2017-08-07T02:31:00.507Z,67.40
2017-08-07T02:33:28.786Z,67.60
2017-08-07T02:35:57.095Z,68.60
2017-08-07T02:38:26.172Z,68.00
2017-08-07T02:40:54.508Z,68.00
2017-08-07T02:43:22.844Z,68.20
2017-08-07T02:45:51.145Z,68.40
2017-08-07T02:48:19.506Z,68.60
2017-08-07T02:50:48.571Z,69.00
2017-08-07T02:53:16.851Z,68.90
2017-08-07T02:55:45.193Z,68.80
2017-08-07T02:58:13.479Z,68.90
2017-08-07T03:00:41.780Z,69.10
2017-08-07T03:03:10.111Z,68.70
2017-08-07T03:05:38.409Z,68.30
2017-08-07T03:08:06.774Z,68.50
2017-08-07T03:10:39.890Z,68.40
2017-08-07T03:13:08.299Z,68.50
2017-08-07T03:15:36.625Z,68.70
2017-08-07T03:18:04.898Z,68.50
2017-08-07T03:20:33.183Z,68.70
2017-08-07T03:23:01.491Z,68.90
2017-08-07T03:25:29.771Z,69.30
2017-08-07T03:27:58.823Z,69.50
2017-08-07T03:30:27.143Z,69.50
2017-08-07T03:32:55.423Z,69.30
2017-08-07T03:35:23.700Z,69.20
2017-08-07T03:37:52.035Z,69.20
2017-08-07T03:40:20.323Z,69.20
2017-08-07T03:42:48.607Z,69.20
2017-08-07T03:45:16.927Z,69.40
2017-08-07T03:47:45.336Z,69.70
2017-08-07T03:50:13.642Z,69.70
2017-08-07T03:52:41.973Z,69.80
2017-08-07T03:55:10.265Z,70.30
2017-08-07T03:57:38.575Z,70.00
2017-08-07T04:00:06.920Z,70.10
2017-08-07T04:02:35.251Z,69.90
2017-08-07T04:05:03.535Z,69.80
2017-08-07T04:07:31.859Z,69.80
2017-08-07T04:10:00.140Z,69.70
2017-08-07T04:12:28.466Z,70.00
2017-08-07T04:14:56.792Z,70.10
2017-08-07T04:17:25.111Z,70.10
2017-08-07T04:19:53.404Z,70.10
2017-08-07T04:22:21.727Z,70.50
2017-08-07T04:24:50.773Z,71.20
2017-08-07T04:27:20.307Z,69.70
2017-08-07T04:29:48.619Z,70.30
2017-08-07T04:32:16.907Z,70.80
2017-08-07T04:34:45.230Z,70.40
2017-08-07T04:37:13.522Z,70.60
2017-08-07T04:39:41.808Z,70.70
2017-08-07T04:42:10.130Z,70.50
2017-08-07T04:44:38.435Z,70.50
2017-08-07T04:47:06.732Z,70.50
2017-08-07T04:49:35.042Z,71.50
2017-08-07T04:52:03.322Z,70.80
2017-08-07T04:54:31.607Z,70.50
2017-08-07T04:57:00.705Z,71.20
2017-08-07T04:59:28.991Z,70.30
2017-08-07T05:01:57.274Z,70.30
2017-08-07T05:04:25.585Z,70.00
2017-08-07T05:06:53.866Z,70.00
2017-08-07T05:09:22.141Z,70.20
2017-08-07T05:11:51.222Z,69.90
2017-08-07T05:14:19.502Z,69.90
2017-08-07T05:16:47.783Z,69.90
2017-08-07T05:19:16.103Z,69.70
2017-08-07T05:21:44.386Z,69.20
2017-08-07T05:24:12.660Z,69.20
2017-08-07T05:26:41.754Z,69.10
2017-08-07T05:29:10.727Z,69.10
2017-08-07T05:31:39.030Z,68.90
2017-08-07T05:34:07.390Z,68.70
2017-08-07T05:36:35.708Z,68.70
2017-08-07T05:39:04.019Z,68.20
2017-08-07T05:41:32.347Z,67.70
2017-08-07T05:44:01.725Z,67.10
2017-08-07T05:46:30.199Z,67.30
2017-08-07T05:48:58.542Z,67.10
2017-08-07T05:51:27.632Z,62.80
2017-08-07T05:53:56.321Z,62.70
2017-08-07T05:56:24.611Z,54.80
2017-08-07T05:58:52.949Z,47.70
2017-08-07T06:01:21.292Z,42.00
2017-08-07T06:03:50.241Z,38.20
2017-08-07T06:06:18.533Z,35.70
2017-08-07T06:08:46.893Z,33.40
2017-08-07T06:11:15.966Z,30.50
2017-08-07T06:13:44.259Z,30.50
2017-08-07T06:16:12.579Z,29.90
2017-08-07T06:18:40.880Z,29.20
2017-08-07T06:21:09.157Z,28.50
2017-08-07T06:23:38.238Z,27.50
2017-08-07T06:26:06.514Z,27.50
2017-08-07T06:28:34.794Z,26.90
2017-08-07T06:31:03.143Z,26.70
2017-08-07T06:33:32.549Z,26.90
2017-08-07T06:36:00.834Z,26.20
2017-08-07T06:38:29.447Z,25.40
2017-08-07T06:40:57.726Z,24.60
2017-08-07T06:43:26.020Z,24.70
2017-08-07T06:45:54.354Z,24.60
2017-08-07T06:48:22.648Z,24.40
2017-08-07T06:50:50.990Z,24.10
2017-08-07T06:53:19.284Z,23.40
2017-08-07T06:55:47.571Z,23.50
2017-08-07T06:58:15.880Z,23.00
2017-08-07T07:00:44.159Z,23.10
2017-08-07T07:03:12.448Z,22.30
2017-08-07T07:05:40.757Z,22.40
2017-08-07T07:08:09.048Z,22.40
2017-08-07T07:10:37.332Z,22.40
2017-08-07T07:13:05.643Z,22.20
2017-08-07T07:15:33.939Z,22.40
2017-08-07T07:18:02.241Z,21.90
2017-08-07T07:20:30.563Z,22.00
2017-08-07T07:22:58.844Z,22.10
2017-08-07T07:25:27.128Z,22.40
2017-08-07T07:27:55.467Z,22.30
2017-08-07T07:30:23.751Z,22.40
2017-08-07T07:32:52.030Z,22.10
2017-08-07T07:35:21.131Z,22.70
2017-08-07T07:37:49.410Z,22.70
2017-08-07T07:40:17.699Z,21.90
2017-08-07T07:42:46.015Z,21.80
2017-08-07T07:45:14.301Z,21.80
2017-08-07T07:47:42.593Z,21.70
2017-08-07T07:50:10.903Z,22.00
2017-08-07T07:52:39.194Z,22.10
2017-08-07T07:55:07.476Z,22.20
2017-08-07T07:57:35.799Z,21.80
2017-08-07T08:00:04.098Z,21.80
2017-08-07T08:02:32.391Z,21.80
2017-08-07T08:05:00.716Z,21.60
2017-08-07T08:07:29.006Z,22.20
2017-08-07T08:09:57.309Z,21.90
2017-08-07T08:12:25.614Z,21.90
2017-08-07T08:14:53.908Z,22.30
2017-08-07T08:17:22.228Z,21.80
2017-08-07T08:19:50.546Z,21.70
2017-08-07T08:22:18.831Z,21.90
2017-08-07T08:24:47.131Z,21.90
2017-08-07T08:27:15.455Z,22.70
2017-08-07T08:29:43.739Z,22.90
2017-08-07T08:32:12.034Z,22.20
2017-08-07T08:34:40.380Z,22.80
2017-08-07T08:37:08.685Z,22.40
2017-08-07T08:39:37.759Z,23.40
2017-08-07T08:42:06.128Z,24.10
2017-08-07T08:44:34.459Z,23.60
2017-08-07T08:47:02.755Z,23.80
2017-08-07T08:49:31.100Z,24.00
2017-08-07T08:51:59.401Z,23.90
2017-08-07T08:54:27.699Z,24.10
2017-08-07T08:56:56.045Z,24.60
2017-08-07T08:59:24.334Z,25.40
2017-08-07T09:01:52.626Z,24.70
2017-08-07T09:04:20.966Z,25.40
2017-08-07T09:06:49.259Z,25.90
2017-08-07T09:09:17.550Z,26.40
2017-08-07T09:11:45.877Z,25.40
2017-08-07T09:14:14.174Z,25.50
2017-08-07T09:16:42.470Z,25.40
2017-08-07T09:19:10.813Z,26.30
2017-08-07T09:21:39.143Z,24.50
2017-08-07T09:24:07.446Z,25.00
2017-08-07T09:26:35.774Z,25.70
2017-08-07T09:29:04.088Z,26.30
2017-08-07T09:31:32.385Z,27.20
2017-08-07T09:34:00.730Z,27.90
2017-08-07T09:36:29.034Z,29.70
2017-08-07T09:38:57.356Z,30.30
2017-08-07T09:41:25.685Z,29.30
2017-08-07T09:43:53.991Z,29.70
2017-08-07T09:46:22.290Z,30.00
2017-08-07T09:48:50.628Z,30.10
2017-08-07T09:51:19.697Z,30.40
2017-08-07T09:53:48.038Z,30.40
2017-08-07T09:56:16.367Z,29.30
2017-08-07T09:58:44.665Z,29.50
2017-08-07T10:01:12.967Z,29.80
2017-08-07T10:03:41.298Z,29.40
2017-08-07T10:06:09.613Z,29.30
2017-08-07T10:08:37.909Z,29.50
2017-08-07T10:11:06.252Z,29.30
2017-08-07T10:13:34.549Z,29.30
2017-08-07T10:16:02.849Z,30.40
2017-08-07T10:18:31.187Z,29.20
2017-08-07T10:20:59.496Z,30.40
2017-08-07T10:23:27.800Z,30.50
2017-08-07T10:25:56.133Z,31.40
2017-08-07T10:28:24.424Z,32.00
2017-08-07T10:30:52.723Z,32.30
2017-08-07T10:33:21.056Z,31.50
2017-08-07T10:35:49.354Z,29.70
2017-08-07T10:38:17.673Z,29.60
2017-08-07T10:40:46.012Z,30.30
2017-08-07T10:43:14.692Z,29.30
2017-08-07T10:45:42.997Z,30.40
2017-08-07T10:48:11.324Z,31.40
2017-08-07T10:50:39.619Z,31.90
2017-08-07T10:53:08.755Z,26.60
2017-08-07T10:55:37.146Z,26.40
2017-08-07T10:58:05.441Z,26.10
2017-08-07T11:00:33.816Z,27.30
2017-08-07T11:03:02.189Z,27.20
2017-08-07T11:05:31.275Z,29.30
2017-08-07T11:07:59.589Z,29.30
2017-08-07T11:10:27.941Z,29.50
2017-08-07T11:12:57.186Z,29.60
2017-08-07T11:15:25.490Z,27.70
2017-08-07T11:17:53.881Z,28.60
2017-08-07T11:20:22.200Z,28.00
2017-08-07T11:22:50.527Z,28.30
2017-08-07T11:25:18.858Z,29.00
2017-08-07T11:27:47.200Z,27.50
2017-08-07T11:30:15.537Z,28.50
2017-08-07T11:32:43.904Z,27.50
2017-08-07T11:35:12.199Z,28.40
2017-08-07T11:37:40.569Z,28.70
2017-08-07T11:40:08.953Z,30.10
2017-08-07T11:42:37.261Z,30.50
2017-08-07T11:45:05.579Z,29.70
2017-08-07T11:47:33.965Z,27.70
2017-08-07T11:50:02.311Z,28.50
2017-08-07T11:52:30.611Z,28.80
2017-08-07T11:54:58.910Z,29.50
2017-08-07T11:57:27.261Z,29.60
2017-08-07T11:59:55.561Z,30.10
2017-08-07T12:02:23.859Z,30.80
2017-08-07T12:04:52.199Z,30.60
2017-08-07T12:07:21.275Z,29.70
2017-08-07T12:09:49.585Z,29.40
2017-08-07T12:12:17.921Z,28.40
2017-08-07T12:14:46.285Z,29.10
2017-08-07T12:17:14.583Z,29.50
2017-08-07T12:19:42.932Z,30.30
2017-08-07T12:22:12.012Z,30.20
2017-08-07T12:24:40.315Z,30.20
2017-08-07T12:27:08.721Z,27.90
2017-08-07T12:29:37.023Z,27.50
2017-08-07T12:32:05.317Z,27.40
2017-08-07T12:34:33.930Z,27.30
2017-08-07T12:37:02.274Z,27.80
2017-08-07T12:39:31.448Z,28.60
2017-08-07T12:41:59.785Z,28.60
2017-08-07T12:44:28.091Z,28.80
2017-08-07T12:46:56.396Z,28.80
2017-08-07T12:49:25.598Z,31.00
2017-08-07T12:51:54.006Z,28.50
2017-08-07T12:54:22.316Z,30.10
2017-08-07T12:56:50.698Z,28.40
2017-08-07T12:59:18.998Z,27.40
2017-08-07T13:01:47.296Z,27.10
2017-08-07T13:04:15.643Z,28.70
2017-08-07T13:06:43.968Z,27.20
2017-08-07T13:09:12.282Z,27.40
2017-08-07T13:11:40.625Z,26.10
2017-08-07T13:14:08.933Z,26.40
2017-08-07T13:16:37.239Z,27.90
2017-08-07T13:19:05.580Z,25.40
2017-08-07T13:21:33.907Z,26.30
2017-08-07T13:24:02.966Z,26.00
2017-08-07T13:26:31.300Z,26.60
2017-08-07T13:29:00.361Z,25.80
2017-08-07T13:31:28.670Z,25.80
2017-08-07T13:33:57.011Z,26.30
2017-08-07T13:36:26.075Z,30.60
2017-08-07T13:38:54.411Z,30.60
2017-08-07T13:41:22.759Z,29.20
2017-08-07T13:43:51.063Z,28.40
2017-08-07T13:46:19.354Z,25.30
2017-08-07T13:48:48.457Z,25.80
2017-08-07T13:51:16.756Z,25.80
2017-08-07T13:53:45.053Z,24.60
2017-08-07T13:56:13.382Z,26.10
2017-08-07T13:58:42.440Z,29.80
2017-08-07T14:01:10.735Z,29.70
2017-08-07T14:03:39.069Z,27.20
2017-08-07T14:06:07.361Z,27.60
2017-08-07T14:08:35.662Z,28.90
2017-08-07T14:11:03.992Z,29.10
2017-08-07T14:13:32.288Z,25.80
2017-08-07T14:16:00.577Z,25.00
2017-08-07T14:18:28.918Z,26.30
2017-08-07T14:20:57.977Z,27.30
2017-08-07T14:23:26.270Z,27.20
2017-08-07T14:25:55.504Z,25.00
2017-08-07T14:28:23.796Z,25.30
2017-08-07T14:30:52.113Z,25.80
2017-08-07T14:33:20.456Z,26.60
2017-08-07T14:35:49.513Z,27.10
2017-08-07T14:38:17.814Z,27.10
2017-08-07T14:40:46.155Z,27.20
2017-08-07T14:43:14.676Z,25.50
2017-08-07T14:45:42.965Z,25.60
2017-08-07T14:48:11.310Z,27.40
2017-08-07T14:50:39.615Z,25.90
2017-08-07T14:53:07.906Z,25.90
2017-08-07T14:55:37.006Z,26.30
2017-08-07T14:58:05.305Z,26.30
2017-08-07T15:00:33.595Z,26.50
2017-08-07T15:03:01.925Z,26.20
2017-08-07T15:05:30.983Z,26.40
2017-08-07T15:07:59.285Z,26.40
2017-08-07T15:10:27.616Z,26.20
2017-08-07T15:12:55.954Z,26.50
2017-08-07T15:15:25.025Z,26.60
2017-08-07T15:17:53.349Z,26.60
2017-08-07T15:20:21.656Z,27.30
2017-08-07T15:22:49.957Z,26.30
2017-08-07T15:25:18.304Z,26.10
2017-08-07T15:27:46.604Z,26.70
2017-08-07T15:30:14.936Z,26.90
2017-08-07T15:32:43.242Z,27.00
2017-08-07T15:35:11.538Z,26.70
2017-08-07T15:37:39.870Z,27.00
2017-08-07T15:40:08.167Z,26.70
2017-08-07T15:42:36.482Z,27.30
2017-08-07T15:45:04.825Z,27.00
2017-08-07T15:47:33.884Z,27.20
2017-08-07T15:50:02.237Z,27.20
2017-08-07T15:52:31.337Z,28.40
2017-08-07T15:54:59.680Z,28.20
2017-08-07T15:57:28.665Z,28.50
2017-08-07T15:59:57.736Z,27.90
2017-08-07T16:02:26.040Z,28.60
2017-08-07T16:04:54.347Z,28.50
2017-08-07T16:07:22.709Z,28.00
2017-08-07T16:09:51.774Z,28.70
2017-08-07T16:12:20.088Z,28.60
2017-08-07T16:14:48.420Z,28.90
2017-08-07T16:17:17.670Z,28.20
2017-08-07T16:19:45.987Z,28.50
2017-08-07T16:22:14.516Z,28.30
2017-08-07T16:24:42.818Z,28.70
2017-08-07T16:27:11.115Z,29.00
2017-08-07T16:29:57.312Z,29.00
2017-08-07T16:32:25.666Z,28.90
2017-08-07T16:34:53.988Z,29.30
2017-08-07T16:37:23.082Z,29.90
2017-08-07T16:39:51.430Z,29.20
2017-08-07T16:42:20.507Z,28.90
2017-08-07T16:44:48.826Z,28.90
2017-08-07T16:47:17.161Z,28.00
2017-08-07T16:49:46.254Z,28.40
2017-08-07T16:52:14.557Z,28.40
2017-08-07T16:54:42.904Z,29.00
2017-08-07T16:57:11.235Z,29.10
2017-08-07T16:59:39.645Z,28.30
2017-08-07T17:02:08.783Z,28.40
2017-08-07T17:04:37.156Z,28.40
2017-08-07T17:07:05.501Z,29.00
2017-08-07T17:09:33.833Z,28.30
2017-08-07T17:12:02.130Z,28.30
2017-08-07T17:14:31.252Z,28.50
2017-08-07T17:17:00.309Z,29.10
2017-08-07T17:19:28.609Z,29.10
2017-08-07T17:21:56.945Z,29.60
2017-08-07T17:24:25.264Z,30.00
2017-08-07T17:26:55.098Z,30.60
2017-08-07T17:29:24.225Z,30.50
2017-08-07T17:31:52.795Z,30.50
2017-08-07T17:34:21.177Z,31.00
2017-08-07T17:36:49.598Z,30.90
2017-08-07T17:39:17.935Z,31.00
2017-08-07T17:41:47.027Z,31.10
2017-08-07T17:44:15.419Z,31.10
2017-08-07T17:46:43.725Z,31.00
2017-08-07T17:49:12.081Z,31.00
2017-08-07T17:51:40.418Z,31.10
2017-08-07T17:54:08.710Z,31.70
2017-08-07T17:56:37.046Z,32.00
2017-08-07T17:59:05.385Z,31.80
2017-08-07T18:01:33.694Z,32.10
2017-08-07T18:04:01.989Z,33.10
2017-08-07T18:06:31.114Z,32.70
2017-08-07T18:09:01.079Z,33.70
2017-08-07T18:11:29.583Z,33.10
2017-08-07T18:13:57.916Z,33.20
2017-08-07T18:16:26.218Z,33.60
2017-08-07T18:18:54.582Z,34.10
2017-08-07T18:21:22.896Z,34.20
2017-08-07T18:23:51.199Z,34.70
2017-08-07T18:26:19.541Z,34.70
2017-08-07T18:28:47.831Z,35.00
2017-08-07T18:31:16.941Z,35.20
2017-08-07T18:33:45.857Z,35.10
2017-08-07T18:36:14.158Z,35.50
2017-08-07T18:38:42.830Z,35.70
2017-08-07T18:41:11.935Z,35.80
2017-08-07T18:43:40.228Z,35.80
2017-08-07T18:46:10.652Z,36.30
2017-08-07T18:48:39.060Z,36.20
2017-08-07T18:51:07.897Z,36.60
2017-08-07T18:53:37.748Z,36.30
2017-08-07T18:56:06.042Z,36.40
2017-08-07T18:58:34.374Z,36.60
2017-08-07T19:01:02.758Z,36.40
2017-08-07T19:03:31.831Z,36.40
2017-08-07T19:06:00.196Z,36.80
2017-08-07T19:08:29.341Z,36.60
2017-08-07T19:10:57.787Z,36.50
2017-08-07T19:13:26.093Z,36.80
2017-08-07T19:15:54.438Z,37.00
2017-08-07T19:18:23.493Z,37.10
2017-08-07T19:20:51.789Z,37.10
2017-08-07T19:23:20.124Z,37.30
2017-08-07T19:25:48.884Z,37.60
2017-08-07T19:28:17.236Z,37.60
2017-08-07T19:30:45.664Z,37.60
2017-08-07T19:33:13.953Z,38.00
2017-08-07T19:35:42.249Z,38.10
2017-08-07T19:38:10.583Z,38.60
2017-08-07T19:40:39.639Z,39.10
2017-08-07T19:43:07.932Z,39.70
2017-08-07T19:45:36.285Z,39.00
2017-08-07T19:48:04.606Z,38.70
2017-08-07T19:50:32.905Z,39.20
2017-08-07T19:53:01.997Z,39.80
2017-08-07T19:55:30.367Z,39.80
2017-08-07T19:57:58.722Z,40.30
2017-08-07T20:00:27.017Z,40.80
2017-08-07T20:02:55.316Z,41.30
2017-08-07T20:05:23.644Z,41.30
2017-08-07T20:07:52.701Z,43.20
2017-08-07T20:10:20.990Z,43.10
2017-08-07T20:12:49.330Z,43.20
2017-08-07T20:15:17.626Z,43.60
2017-08-07T20:17:46.728Z,44.00
2017-08-07T20:20:15.103Z,44.60
2017-08-07T20:22:44.164Z,45.10
2017-08-07T20:25:12.550Z,45.10
2017-08-07T20:27:40.879Z,45.40
2017-08-07T20:30:09.176Z,45.50
2017-08-07T20:32:37.471Z,45.40
2017-08-07T20:35:05.878Z,45.60
2017-08-07T20:37:34.179Z,45.90
2017-08-07T20:40:02.521Z,46.30
2017-08-07T20:42:30.861Z,46.40
2017-08-07T20:44:59.197Z,46.50
2017-08-07T20:47:27.485Z,46.70
2017-08-07T20:49:55.817Z,46.60
2017-08-07T20:52:24.174Z,46.60
2017-08-07T20:54:53.248Z,47.00
2017-08-07T20:57:21.629Z,46.90
2017-08-07T20:59:49.939Z,47.30
2017-08-07T21:02:18.233Z,47.70
2017-08-07T21:04:46.578Z,47.70
2017-08-07T21:07:14.869Z,47.50
2017-08-07T21:09:43.166Z,47.90
2017-08-07T21:12:11.507Z,48.00
2017-08-07T21:14:40.580Z,48.20
2017-08-07T21:17:08.875Z,48.20
2017-08-07T21:19:37.210Z,48.20
2017-08-07T21:22:06.306Z,48.90
2017-08-07T21:24:34.607Z,48.80
2017-08-07T21:27:03.006Z,49.10
2017-08-07T21:29:31.410Z,49.30
2017-08-07T21:31:59.714Z,49.40
2017-08-07T21:34:28.069Z,49.70
2017-08-07T21:36:57.133Z,50.30
2017-08-07T21:39:25.433Z,50.20
2017-08-07T21:41:53.778Z,50.60
2017-08-07T21:44:22.081Z,50.00
2017-08-07T21:46:50.374Z,50.10
2017-08-07T21:49:18.710Z,50.10
2017-08-07T21:51:47.738Z,50.50
2017-08-07T21:54:16.034Z,51.10
2017-08-07T21:56:44.404Z,51.10
2017-08-07T21:59:12.703Z,51.50
2017-08-07T22:01:41.002Z,51.70
2017-08-07T22:04:09.328Z,51.60
2017-08-07T22:06:37.625Z,51.40
2017-08-07T22:09:06.681Z,52.10
2017-08-07T22:11:35.057Z,52.10
2017-08-07T22:14:04.104Z,52.10
2017-08-07T22:16:32.389Z,52.10
2017-08-07T22:19:00.722Z,52.30
2017-08-07T22:21:29.021Z,52.10
2017-08-07T22:23:57.314Z,52.20
2017-08-07T22:26:25.655Z,52.30
2017-08-07T22:28:53.954Z,52.40
2017-08-07T22:31:22.273Z,52.40
2017-08-07T22:33:50.601Z,52.90
2017-08-07T22:36:18.937Z,52.90
2017-08-07T22:38:47.229Z,52.90
2017-08-07T22:41:15.577Z,53.40
2017-08-07T22:43:43.887Z,53.20
2017-08-07T22:46:12.174Z,53.30
2017-08-07T22:48:40.504Z,53.50
2017-08-07T22:51:09.560Z,53.30
2017-08-07T22:53:37.849Z,53.30
2017-08-07T22:56:06.178Z,53.40
2017-08-07T22:58:34.473Z,53.80
2017-08-07T23:01:02.785Z,54.00
2017-08-07T23:03:31.105Z,54.00
2017-08-07T23:05:59.391Z,54.20
2017-08-07T23:08:27.729Z,54.90
2017-08-07T23:10:56.033Z,54.70
2017-08-07T23:13:24.320Z,55.30
2017-08-07T23:15:52.644Z,55.00
2017-08-07T23:18:21.702Z,55.90
2017-08-07T23:20:50.008Z,55.90
2017-08-07T23:23:18.339Z,55.60
2017-08-07T23:25:46.630Z,55.40
2017-08-07T23:28:14.933Z,55.80
2017-08-07T23:30:43.272Z,56.10
2017-08-07T23:33:12.342Z,57.30
2017-08-07T23:35:40.641Z,57.30
2017-08-07T23:38:08.973Z,57.20
2017-08-07T23:40:37.270Z,57.20
2017-08-07T23:43:05.585Z,58.00
2017-08-07T23:45:33.918Z,58.20
2017-08-07T23:48:02.218Z,58.00
2017-08-07T23:50:31.281Z,57.70
2017-08-07T23:52:59.604Z,57.70
2017-08-07T23:55:27.902Z,57.80
2017-08-07T23:57:56.211Z,57.90
